sensor_id;sensor_type;location;lat;lon;timestamp;P1;durP1;ratioP1;P2;durP2;ratioP2
24325;SDS011;12448;45.532;5.290;2024-02-15T00:00:27;3.17;;;1.85;;
24325;SDS011;12448;45.532;5.290;2024-02-15T00:02:53;3.30;;;1.90;;
24325;SDS011;12448;45.532;5.290;2024-02-15T00:05:19;4.00;;;2.05;;
24325;SDS011;12448;45.532;5.290;2024-02-15T00:07:45;2.30;;;1.55;;
24325;SDS011;12448;45.532;5.290;2024-02-15T00:10:14;5.28;;;2.15;;
24325;SDS011;12448;45.532;5.290;2024-02-15T00:12:39;6.07;;;2.42;;
24325;SDS011;12448;45.532;5.290;2024-02-15T00:15:05;3.92;;;2.10;;
24325;SDS011;12448;45.532;5.290;2024-02-15T00:17:31;5.45;;;2.10;;
24325;SDS011;12448;45.532;5.290;2024-02-15T00:19:58;3.47;;;1.85;;
24325;SDS011;12448;45.532;5.290;2024-02-15T00:22:25;3.42;;;2.20;;
24325;SDS011;12448;45.532;5.290;2024-02-15T00:24:50;3.45;;;2.00;;
24325;SDS011;12448;45.532;5.290;2024-02-15T00:27:16;5.63;;;2.58;;
24325;SDS011;12448;45.532;5.290;2024-02-15T00:29:42;4.68;;;1.95;;
24325;SDS011;12448;45.532;5.290;2024-02-15T00:32:10;3.63;;;1.90;;
24325;SDS011;12448;45.532;5.290;2024-02-15T00:34:36;4.15;;;1.80;;
24325;SDS011;12448;45.532;5.290;2024-02-15T00:37:05;3.30;;;1.85;;
24325;SDS011;12448;45.532;5.290;2024-02-15T00:39:31;3.90;;;2.42;;
24325;SDS011;12448;45.532;5.290;2024-02-15T00:41:57;2.28;;;1.73;;
24325;SDS011;12448;45.532;5.290;2024-02-15T00:44:25;2.95;;;2.10;;
24325;SDS011;12448;45.532;5.290;2024-02-15T00:46:51;4.30;;;2.05;;
24325;SDS011;12448;45.532;5.290;2024-02-15T00:49:16;3.42;;;2.10;;
24325;SDS011;12448;45.532;5.290;2024-02-15T00:51:45;4.50;;;2.47;;
24325;SDS011;12448;45.532;5.290;2024-02-15T00:54:11;3.92;;;1.90;;
24325;SDS011;12448;45.532;5.290;2024-02-15T00:56:37;3.47;;;2.13;;
24325;SDS011;12448;45.532;5.290;2024-02-15T00:59:05;3.58;;;1.90;;
24325;SDS011;12448;45.532;5.290;2024-02-15T01:01:34;5.07;;;2.25;;
24325;SDS011;12448;45.532;5.290;2024-02-15T01:04:03;6.82;;;2.40;;
24325;SDS011;12448;45.532;5.290;2024-02-15T01:06:29;3.58;;;1.80;;
24325;SDS011;12448;45.532;5.290;2024-02-15T01:08:55;3.13;;;1.85;;
24325;SDS011;12448;45.532;5.290;2024-02-15T01:11:22;2.88;;;1.83;;
24325;SDS011;12448;45.532;5.290;2024-02-15T01:13:49;4.00;;;2.40;;
24325;SDS011;12448;45.532;5.290;2024-02-15T01:16:18;5.88;;;2.42;;
24325;SDS011;12448;45.532;5.290;2024-02-15T01:18:47;8.75;;;2.58;;
24325;SDS011;12448;45.532;5.290;2024-02-15T01:21:12;3.70;;;2.00;;
24325;SDS011;12448;45.532;5.290;2024-02-15T01:23:38;3.90;;;2.40;;
24325;SDS011;12448;45.532;5.290;2024-02-15T01:26:04;6.32;;;2.80;;
24325;SDS011;12448;45.532;5.290;2024-02-15T01:28:30;4.18;;;2.67;;
24325;SDS011;12448;45.532;5.290;2024-02-15T01:30:55;5.65;;;2.67;;
24325;SDS011;12448;45.532;5.290;2024-02-15T01:33:30;4.63;;;2.80;;
24325;SDS011;12448;45.532;5.290;2024-02-15T01:35:56;5.97;;;2.60;;
24325;SDS011;12448;45.532;5.290;2024-02-15T01:38:25;4.38;;;2.45;;
24325;SDS011;12448;45.532;5.290;2024-02-15T01:40:51;4.53;;;2.80;;
24325;SDS011;12448;45.532;5.290;2024-02-15T01:43:22;6.82;;;3.25;;
24325;SDS011;12448;45.532;5.290;2024-02-15T01:45:48;7.07;;;2.95;;
24325;SDS011;12448;45.532;5.290;2024-02-15T01:48:16;4.50;;;2.92;;
24325;SDS011;12448;45.532;5.290;2024-02-15T01:50:45;5.55;;;3.13;;
24325;SDS011;12448;45.532;5.290;2024-02-15T01:53:16;5.30;;;3.30;;
24325;SDS011;12448;45.532;5.290;2024-02-15T01:55:42;7.55;;;3.30;;
24325;SDS011;12448;45.532;5.290;2024-02-15T01:58:11;6.22;;;3.58;;
24325;SDS011;12448;45.532;5.290;2024-02-15T02:00:37;7.65;;;3.85;;
24325;SDS011;12448;45.532;5.290;2024-02-15T02:03:06;6.20;;;3.50;;
24325;SDS011;12448;45.532;5.290;2024-02-15T02:05:35;7.30;;;3.40;;
24325;SDS011;12448;45.532;5.290;2024-02-15T02:08:05;5.55;;;3.63;;
24325;SDS011;12448;45.532;5.290;2024-02-15T02:10:34;10.07;;;4.20;;
24325;SDS011;12448;45.532;5.290;2024-02-15T02:13:03;9.02;;;4.55;;
24325;SDS011;12448;45.532;5.290;2024-02-15T02:15:29;7.78;;;3.88;;
24325;SDS011;12448;45.532;5.290;2024-02-15T02:17:57;9.75;;;4.32;;
24325;SDS011;12448;45.532;5.290;2024-02-15T02:20:26;9.80;;;4.60;;
24325;SDS011;12448;45.532;5.290;2024-02-15T02:22:53;7.88;;;4.13;;
24325;SDS011;12448;45.532;5.290;2024-02-15T02:25:22;10.13;;;4.57;;
24325;SDS011;12448;45.532;5.290;2024-02-15T02:27:55;13.05;;;5.53;;
24325;SDS011;12448;45.532;5.290;2024-02-15T02:30:21;10.98;;;5.15;;
24325;SDS011;12448;45.532;5.290;2024-02-15T02:32:48;10.25;;;5.18;;
24325;SDS011;12448;45.532;5.290;2024-02-15T02:35:14;12.05;;;5.20;;
24325;SDS011;12448;45.532;5.290;2024-02-15T02:37:41;10.68;;;5.15;;
24325;SDS011;12448;45.532;5.290;2024-02-15T02:40:07;11.15;;;5.53;;
24325;SDS011;12448;45.532;5.290;2024-02-15T02:42:35;12.07;;;5.32;;
24325;SDS011;12448;45.532;5.290;2024-02-15T02:45:18;12.18;;;6.10;;
24325;SDS011;12448;45.532;5.290;2024-02-15T02:47:45;9.63;;;5.78;;
24325;SDS011;12448;45.532;5.290;2024-02-15T02:50:12;11.65;;;6.13;;
24325;SDS011;12448;45.532;5.290;2024-02-15T02:52:38;12.15;;;6.20;;
24325;SDS011;12448;45.532;5.290;2024-02-15T02:55:04;10.55;;;5.85;;
24325;SDS011;12448;45.532;5.290;2024-02-15T02:57:33;10.68;;;5.95;;
24325;SDS011;12448;45.532;5.290;2024-02-15T03:00:06;12.68;;;6.70;;
24325;SDS011;12448;45.532;5.290;2024-02-15T03:02:36;12.25;;;6.68;;
24325;SDS011;12448;45.532;5.290;2024-02-15T03:05:03;11.02;;;6.10;;
24325;SDS011;12448;45.532;5.290;2024-02-15T03:07:32;10.50;;;5.85;;
24325;SDS011;12448;45.532;5.290;2024-02-15T03:09:58;15.27;;;6.95;;
24325;SDS011;12448;45.532;5.290;2024-02-15T03:12:24;12.98;;;6.57;;
24325;SDS011;12448;45.532;5.290;2024-02-15T03:14:51;15.27;;;6.80;;
24325;SDS011;12448;45.532;5.290;2024-02-15T03:17:17;19.58;;;7.90;;
24325;SDS011;12448;45.532;5.290;2024-02-15T03:19:43;16.30;;;7.38;;
24325;SDS011;12448;45.532;5.290;2024-02-15T03:22:08;15.63;;;8.00;;
24325;SDS011;12448;45.532;5.290;2024-02-15T03:24:34;14.35;;;7.25;;
24325;SDS011;12448;45.532;5.290;2024-02-15T03:27:00;15.43;;;8.05;;
24325;SDS011;12448;45.532;5.290;2024-02-15T03:29:26;12.93;;;7.65;;
24325;SDS011;12448;45.532;5.290;2024-02-15T03:31:51;17.35;;;8.05;;
24325;SDS011;12448;45.532;5.290;2024-02-15T03:34:18;17.63;;;7.80;;
24325;SDS011;12448;45.532;5.290;2024-02-15T03:36:46;14.80;;;6.85;;
24325;SDS011;12448;45.532;5.290;2024-02-15T03:39:18;9.90;;;6.88;;
24325;SDS011;12448;45.532;5.290;2024-02-15T03:41:44;16.48;;;7.78;;
24325;SDS011;12448;45.532;5.290;2024-02-15T03:44:11;16.08;;;7.35;;
24325;SDS011;12448;45.532;5.290;2024-02-15T03:46:37;16.00;;;7.15;;
24325;SDS011;12448;45.532;5.290;2024-02-15T03:49:02;10.48;;;6.50;;
24325;SDS011;12448;45.532;5.290;2024-02-15T03:51:28;14.35;;;7.47;;
24325;SDS011;12448;45.532;5.290;2024-02-15T03:53:54;12.40;;;5.80;;
24325;SDS011;12448;45.532;5.290;2024-02-15T03:56:19;12.23;;;6.80;;
24325;SDS011;12448;45.532;5.290;2024-02-15T03:58:48;13.38;;;7.13;;
24325;SDS011;12448;45.532;5.290;2024-02-15T04:01:15;12.75;;;6.50;;
24325;SDS011;12448;45.532;5.290;2024-02-15T04:03:41;12.27;;;6.35;;
24325;SDS011;12448;45.532;5.290;2024-02-15T04:06:07;12.93;;;6.05;;
24325;SDS011;12448;45.532;5.290;2024-02-15T04:08:32;14.38;;;6.35;;
24325;SDS011;12448;45.532;5.290;2024-02-15T04:10:58;12.75;;;6.20;;
24325;SDS011;12448;45.532;5.290;2024-02-15T04:13:24;11.40;;;5.82;;
24325;SDS011;12448;45.532;5.290;2024-02-15T04:15:50;10.95;;;6.53;;
24325;SDS011;12448;45.532;5.290;2024-02-15T04:18:17;13.55;;;5.85;;
24325;SDS011;12448;45.532;5.290;2024-02-15T04:20:44;13.98;;;6.38;;
24325;SDS011;12448;45.532;5.290;2024-02-15T04:23:11;12.23;;;5.82;;
24325;SDS011;12448;45.532;5.290;2024-02-15T04:25:37;13.45;;;5.75;;
24325;SDS011;12448;45.532;5.290;2024-02-15T04:28:03;9.90;;;5.28;;
24325;SDS011;12448;45.532;5.290;2024-02-15T04:30:32;11.45;;;5.07;;
24325;SDS011;12448;45.532;5.290;2024-02-15T04:33:03;9.00;;;5.45;;
24325;SDS011;12448;45.532;5.290;2024-02-15T04:35:30;13.77;;;5.93;;
24325;SDS011;12448;45.532;5.290;2024-02-15T04:37:56;14.40;;;6.18;;
24325;SDS011;12448;45.532;5.290;2024-02-15T04:40:22;14.30;;;5.90;;
24325;SDS011;12448;45.532;5.290;2024-02-15T04:42:48;9.65;;;5.60;;
24325;SDS011;12448;45.532;5.290;2024-02-15T04:45:13;11.63;;;5.80;;
24325;SDS011;12448;45.532;5.290;2024-02-15T04:47:40;12.18;;;5.65;;
24325;SDS011;12448;45.532;5.290;2024-02-15T04:50:10;9.32;;;5.10;;
24325;SDS011;12448;45.532;5.290;2024-02-15T04:52:36;10.48;;;5.53;;
24325;SDS011;12448;45.532;5.290;2024-02-15T04:55:02;11.77;;;5.13;;
24325;SDS011;12448;45.532;5.290;2024-02-15T04:57:30;9.55;;;5.53;;
24325;SDS011;12448;45.532;5.290;2024-02-15T04:59:55;8.90;;;5.32;;
24325;SDS011;12448;45.532;5.290;2024-02-15T05:02:21;12.23;;;5.72;;
24325;SDS011;12448;45.532;5.290;2024-02-15T05:04:49;11.85;;;6.13;;
24325;SDS011;12448;45.532;5.290;2024-02-15T05:07:21;17.83;;;5.88;;
24325;SDS011;12448;45.532;5.290;2024-02-15T05:09:51;10.88;;;6.05;;
24325;SDS011;12448;45.532;5.290;2024-02-15T05:12:22;11.95;;;5.88;;
24325;SDS011;12448;45.532;5.290;2024-02-15T05:17:18;13.27;;;5.90;;
24325;SDS011;12448;45.532;5.290;2024-02-15T05:19:44;10.57;;;5.28;;
24325;SDS011;12448;45.532;5.290;2024-02-15T05:22:10;9.38;;;5.53;;
24325;SDS011;12448;45.532;5.290;2024-02-15T05:24:36;10.25;;;5.10;;
24325;SDS011;12448;45.532;5.290;2024-02-15T05:27:04;9.45;;;5.28;;
24325;SDS011;12448;45.532;5.290;2024-02-15T05:29:39;10.13;;;4.88;;
24325;SDS011;12448;45.532;5.290;2024-02-15T05:32:06;8.85;;;5.20;;
24325;SDS011;12448;45.532;5.290;2024-02-15T05:34:32;10.35;;;5.05;;
24325;SDS011;12448;45.532;5.290;2024-02-15T05:37:07;10.40;;;5.05;;
24325;SDS011;12448;45.532;5.290;2024-02-15T05:39:33;10.18;;;5.15;;
24325;SDS011;12448;45.532;5.290;2024-02-15T05:41:59;9.75;;;4.82;;
24325;SDS011;12448;45.532;5.290;2024-02-15T05:44:26;9.77;;;4.88;;
24325;SDS011;12448;45.532;5.290;2024-02-15T05:46:51;7.60;;;4.30;;
24325;SDS011;12448;45.532;5.290;2024-02-15T05:49:17;8.23;;;4.22;;
24325;SDS011;12448;45.532;5.290;2024-02-15T05:51:43;6.85;;;3.80;;
24325;SDS011;12448;45.532;5.290;2024-02-15T05:54:10;7.78;;;3.90;;
24325;SDS011;12448;45.532;5.290;2024-02-15T05:56:36;7.03;;;3.20;;
24325;SDS011;12448;45.532;5.290;2024-02-15T05:59:01;7.68;;;3.80;;
24325;SDS011;12448;45.532;5.290;2024-02-15T06:01:35;10.07;;;3.83;;
24325;SDS011;12448;45.532;5.290;2024-02-15T06:04:04;6.93;;;3.30;;
24325;SDS011;12448;45.532;5.290;2024-02-15T06:06:36;7.07;;;3.40;;
24325;SDS011;12448;45.532;5.290;2024-02-15T06:09:03;7.60;;;3.20;;
24325;SDS011;12448;45.532;5.290;2024-02-15T06:11:29;6.40;;;3.13;;
24325;SDS011;12448;45.532;5.290;2024-02-15T06:13:58;6.05;;;2.88;;
24325;SDS011;12448;45.532;5.290;2024-02-15T06:16:24;5.32;;;2.78;;
24325;SDS011;12448;45.532;5.290;2024-02-15T06:18:50;6.95;;;3.20;;
24325;SDS011;12448;45.532;5.290;2024-02-15T06:21:15;6.20;;;3.05;;
24325;SDS011;12448;45.532;5.290;2024-02-15T06:23:43;6.20;;;3.10;;
24325;SDS011;12448;45.532;5.290;2024-02-15T06:26:08;5.25;;;2.92;;
24325;SDS011;12448;45.532;5.290;2024-02-15T06:28:35;10.93;;;3.08;;
24325;SDS011;12448;45.532;5.290;2024-02-15T06:31:19;5.95;;;2.72;;
24325;SDS011;12448;45.532;5.290;2024-02-15T06:34:03;9.10;;;2.85;;
24325;SDS011;12448;45.532;5.290;2024-02-15T06:36:47;5.53;;;3.00;;
24325;SDS011;12448;45.532;5.290;2024-02-15T06:39:50;11.43;;;2.97;;
24325;SDS011;12448;45.532;5.290;2024-02-15T06:42:17;5.28;;;2.85;;
24325;SDS011;12448;45.532;5.290;2024-02-15T06:44:46;7.82;;;2.83;;
24325;SDS011;12448;45.532;5.290;2024-02-15T06:47:13;6.15;;;2.92;;
24325;SDS011;12448;45.532;5.290;2024-02-15T06:49:42;8.48;;;3.45;;
24325;SDS011;12448;45.532;5.290;2024-02-15T06:52:09;5.78;;;2.85;;
24325;SDS011;12448;45.532;5.290;2024-02-15T06:54:37;6.45;;;3.30;;
24325;SDS011;12448;45.532;5.290;2024-02-15T06:57:06;6.60;;;3.33;;
24325;SDS011;12448;45.532;5.290;2024-02-15T06:59:32;8.05;;;2.95;;
24325;SDS011;12448;45.532;5.290;2024-02-15T07:01:59;5.93;;;3.17;;
24325;SDS011;12448;45.532;5.290;2024-02-15T07:04:25;5.60;;;3.28;;
24325;SDS011;12448;45.532;5.290;2024-02-15T07:06:52;6.60;;;3.00;;
24325;SDS011;12448;45.532;5.290;2024-02-15T07:09:19;7.88;;;3.80;;
24325;SDS011;12448;45.532;5.290;2024-02-15T07:11:46;6.57;;;2.97;;
24325;SDS011;12448;45.532;5.290;2024-02-15T07:14:12;6.05;;;2.85;;
24325;SDS011;12448;45.532;5.290;2024-02-15T07:16:38;9.35;;;3.75;;
24325;SDS011;12448;45.532;5.290;2024-02-15T07:19:04;7.90;;;3.28;;
24325;SDS011;12448;45.532;5.290;2024-02-15T07:21:30;9.13;;;3.40;;
24325;SDS011;12448;45.532;5.290;2024-02-15T07:23:57;7.65;;;3.50;;
24325;SDS011;12448;45.532;5.290;2024-02-15T07:26:24;8.63;;;3.63;;
24325;SDS011;12448;45.532;5.290;2024-02-15T07:28:54;6.25;;;3.40;;
24325;SDS011;12448;45.532;5.290;2024-02-15T07:31:21;6.90;;;3.20;;
24325;SDS011;12448;45.532;5.290;2024-02-15T07:33:53;9.00;;;3.65;;
24325;SDS011;12448;45.532;5.290;2024-02-15T07:36:22;9.65;;;3.42;;
24325;SDS011;12448;45.532;5.290;2024-02-15T07:38:52;7.72;;;2.85;;
24325;SDS011;12448;45.532;5.290;2024-02-15T07:41:18;6.15;;;3.08;;
24325;SDS011;12448;45.532;5.290;2024-02-15T07:43:47;11.90;;;3.47;;
24325;SDS011;12448;45.532;5.290;2024-02-15T07:46:13;7.13;;;3.22;;
24325;SDS011;12448;45.532;5.290;2024-02-15T07:48:39;5.07;;;2.85;;
24325;SDS011;12448;45.532;5.290;2024-02-15T07:51:10;8.35;;;3.72;;
24325;SDS011;12448;45.532;5.290;2024-02-15T07:53:40;4.32;;;3.25;;
24325;SDS011;12448;45.532;5.290;2024-02-15T07:56:06;7.35;;;3.40;;
24325;SDS011;12448;45.532;5.290;2024-02-15T07:58:31;7.13;;;4.13;;
24325;SDS011;12448;45.532;5.290;2024-02-15T08:00:57;6.30;;;3.22;;
24325;SDS011;12448;45.532;5.290;2024-02-15T08:03:24;6.07;;;3.53;;
24325;SDS011;12448;45.532;5.290;2024-02-15T08:05:51;8.60;;;3.90;;
24325;SDS011;12448;45.532;5.290;2024-02-15T08:08:17;10.07;;;4.43;;
24325;SDS011;12448;45.532;5.290;2024-02-15T08:10:43;9.88;;;4.80;;
24325;SDS011;12448;45.532;5.290;2024-02-15T08:13:10;7.22;;;3.78;;
24325;SDS011;12448;45.532;5.290;2024-02-15T08:15:35;10.20;;;4.60;;
24325;SDS011;12448;45.532;5.290;2024-02-15T08:18:01;7.50;;;3.95;;
24325;SDS011;12448;45.532;5.290;2024-02-15T08:20:30;8.75;;;4.22;;
24325;SDS011;12448;45.532;5.290;2024-02-15T08:22:56;9.13;;;4.45;;
24325;SDS011;12448;45.532;5.290;2024-02-15T08:25:24;9.63;;;5.15;;
24325;SDS011;12448;45.532;5.290;2024-02-15T08:27:50;15.57;;;4.65;;
24325;SDS011;12448;45.532;5.290;2024-02-15T08:30:16;11.05;;;4.78;;
24325;SDS011;12448;45.532;5.290;2024-02-15T08:32:43;9.40;;;5.13;;
24325;SDS011;12448;45.532;5.290;2024-02-15T08:35:13;8.23;;;4.75;;
24325;SDS011;12448;45.532;5.290;2024-02-15T08:37:39;8.55;;;4.65;;
24325;SDS011;12448;45.532;5.290;2024-02-15T08:40:08;13.18;;;5.10;;
24325;SDS011;12448;45.532;5.290;2024-02-15T08:42:43;16.10;;;5.22;;
24325;SDS011;12448;45.532;5.290;2024-02-15T08:45:11;10.00;;;5.07;;
24325;SDS011;12448;45.532;5.290;2024-02-15T08:47:41;12.88;;;5.00;;
24325;SDS011;12448;45.532;5.290;2024-02-15T08:50:08;8.93;;;4.90;;
24325;SDS011;12448;45.532;5.290;2024-02-15T08:52:35;7.60;;;4.45;;
24325;SDS011;12448;45.532;5.290;2024-02-15T08:55:08;9.25;;;5.07;;
24325;SDS011;12448;45.532;5.290;2024-02-15T08:57:35;8.93;;;4.88;;
24325;SDS011;12448;45.532;5.290;2024-02-15T09:00:04;10.60;;;4.55;;
24325;SDS011;12448;45.532;5.290;2024-02-15T09:02:34;9.63;;;4.82;;
24325;SDS011;12448;45.532;5.290;2024-02-15T09:05:00;10.23;;;5.13;;
24325;SDS011;12448;45.532;5.290;2024-02-15T09:07:26;13.30;;;5.20;;
24325;SDS011;12448;45.532;5.290;2024-02-15T09:09:51;12.73;;;5.10;;
24325;SDS011;12448;45.532;5.290;2024-02-15T09:12:17;10.50;;;5.35;;
24325;SDS011;12448;45.532;5.290;2024-02-15T09:14:42;10.77;;;5.18;;
24325;SDS011;12448;45.532;5.290;2024-02-15T09:17:08;11.05;;;4.88;;
24325;SDS011;12448;45.532;5.290;2024-02-15T09:19:34;8.18;;;4.78;;
24325;SDS011;12448;45.532;5.290;2024-02-15T09:22:01;12.20;;;5.30;;
24325;SDS011;12448;45.532;5.290;2024-02-15T09:24:30;10.90;;;4.63;;
24325;SDS011;12448;45.532;5.290;2024-02-15T09:26:58;9.82;;;4.88;;
24325;SDS011;12448;45.532;5.290;2024-02-15T09:29:30;11.85;;;5.03;;
24325;SDS011;12448;45.532;5.290;2024-02-15T09:31:57;8.93;;;4.63;;
24325;SDS011;12448;45.532;5.290;2024-02-15T09:34:24;13.48;;;4.85;;
24325;SDS011;12448;45.532;5.290;2024-02-15T09:36:49;9.85;;;5.03;;
24325;SDS011;12448;45.532;5.290;2024-02-15T09:39:15;12.38;;;4.65;;
24325;SDS011;12448;45.532;5.290;2024-02-15T09:41:42;13.60;;;5.07;;
24325;SDS011;12448;45.532;5.290;2024-02-15T09:44:08;13.63;;;4.78;;
24325;SDS011;12448;45.532;5.290;2024-02-15T09:46:35;8.82;;;4.28;;
24325;SDS011;12448;45.532;5.290;2024-02-15T09:49:07;9.73;;;4.10;;
24325;SDS011;12448;45.532;5.290;2024-02-15T09:51:33;9.00;;;4.30;;
24325;SDS011;12448;45.532;5.290;2024-02-15T09:54:01;7.88;;;3.85;;
24325;SDS011;12448;45.532;5.290;2024-02-15T09:56:28;7.57;;;4.07;;
24325;SDS011;12448;45.532;5.290;2024-02-15T09:58:59;8.48;;;4.53;;
24325;SDS011;12448;45.532;5.290;2024-02-15T10:01:25;7.97;;;4.63;;
24325;SDS011;12448;45.532;5.290;2024-02-15T10:03:56;8.23;;;4.45;;
24325;SDS011;12448;45.532;5.290;2024-02-15T10:06:25;8.85;;;4.28;;
24325;SDS011;12448;45.532;5.290;2024-02-15T10:08:52;9.02;;;4.68;;
24325;SDS011;12448;45.532;5.290;2024-02-15T10:11:22;9.93;;;5.00;;
24325;SDS011;12448;45.532;5.290;2024-02-15T10:13:47;10.23;;;5.43;;
24325;SDS011;12448;45.532;5.290;2024-02-15T10:16:13;11.93;;;4.70;;
24325;SDS011;12448;45.532;5.290;2024-02-15T10:18:40;8.20;;;4.43;;
24325;SDS011;12448;45.532;5.290;2024-02-15T10:21:06;7.40;;;4.53;;
24325;SDS011;12448;45.532;5.290;2024-02-15T10:23:32;8.48;;;3.88;;
24325;SDS011;12448;45.532;5.290;2024-02-15T10:25:57;7.60;;;4.50;;
24325;SDS011;12448;45.532;5.290;2024-02-15T10:28:23;11.00;;;4.80;;
24325;SDS011;12448;45.532;5.290;2024-02-15T10:30:49;9.65;;;3.75;;
24325;SDS011;12448;45.532;5.290;2024-02-15T10:33:30;11.32;;;3.80;;
24325;SDS011;12448;45.532;5.290;2024-02-15T10:36:09;5.25;;;3.15;;
24325;SDS011;12448;45.532;5.290;2024-02-15T10:38:40;9.32;;;3.58;;
24325;SDS011;12448;45.532;5.290;2024-02-15T10:41:09;8.25;;;3.78;;
24325;SDS011;12448;45.532;5.290;2024-02-15T10:43:41;6.95;;;3.30;;
24325;SDS011;12448;45.532;5.290;2024-02-15T10:46:15;7.28;;;3.28;;
24325;SDS011;12448;45.532;5.290;2024-02-15T10:48:42;6.18;;;3.30;;
24325;SDS011;12448;45.532;5.290;2024-02-15T10:51:09;9.80;;;3.60;;
24325;SDS011;12448;45.532;5.290;2024-02-15T10:53:42;8.45;;;4.00;;
24325;SDS011;12448;45.532;5.290;2024-02-15T10:56:17;7.43;;;4.32;;
24325;SDS011;12448;45.532;5.290;2024-02-15T10:59:20;9.63;;;4.30;;
24325;SDS011;12448;45.532;5.290;2024-02-15T11:01:47;8.93;;;3.80;;
24325;SDS011;12448;45.532;5.290;2024-02-15T11:04:22;11.43;;;4.32;;
24325;SDS011;12448;45.532;5.290;2024-02-15T11:06:57;8.85;;;4.18;;
24325;SDS011;12448;45.532;5.290;2024-02-15T11:09:26;6.15;;;3.58;;
24325;SDS011;12448;45.532;5.290;2024-02-15T11:11:54;6.93;;;3.60;;
24325;SDS011;12448;45.532;5.290;2024-02-15T11:14:28;7.30;;;3.80;;
24325;SDS011;12448;45.532;5.290;2024-02-15T11:16:55;11.73;;;3.60;;
24325;SDS011;12448;45.532;5.290;2024-02-15T11:19:39;5.78;;;3.25;;
24325;SDS011;12448;45.532;5.290;2024-02-15T11:24:50;9.40;;;3.58;;
24325;SDS011;12448;45.532;5.290;2024-02-15T11:27:23;6.38;;;3.10;;
24325;SDS011;12448;45.532;5.290;2024-02-15T11:29:57;7.28;;;3.13;;
24325;SDS011;12448;45.532;5.290;2024-02-15T11:35:11;6.95;;;3.15;;
24325;SDS011;12448;45.532;5.290;2024-02-15T11:43:06;5.15;;;2.75;;
24325;SDS011;12448;45.532;5.290;2024-02-15T11:45:57;7.22;;;2.30;;
24325;SDS011;12448;45.532;5.290;2024-02-15T11:48:25;5.82;;;2.40;;
24325;SDS011;12448;45.532;5.290;2024-02-15T11:50:56;5.28;;;2.35;;
24325;SDS011;12448;45.532;5.290;2024-02-15T11:53:23;7.57;;;2.20;;
24325;SDS011;12448;45.532;5.290;2024-02-15T11:55:49;3.15;;;1.98;;
24325;SDS011;12448;45.532;5.290;2024-02-15T11:58:16;5.15;;;2.78;;
24325;SDS011;12448;45.532;5.290;2024-02-15T12:00:46;7.20;;;2.00;;
24325;SDS011;12448;45.532;5.290;2024-02-15T12:03:30;3.97;;;2.08;;
24325;SDS011;12448;45.532;5.290;2024-02-15T12:06:18;7.60;;;2.20;;
24325;SDS011;12448;45.532;5.290;2024-02-15T12:09:21;5.57;;;2.25;;
24325;SDS011;12448;45.532;5.290;2024-02-15T12:12:11;9.10;;;2.45;;
24325;SDS011;12448;45.532;5.290;2024-02-15T12:15:01;6.28;;;2.05;;
24325;SDS011;12448;45.532;5.290;2024-02-15T12:17:46;5.53;;;2.10;;
24325;SDS011;12448;45.532;5.290;2024-02-15T12:20:37;6.07;;;2.20;;
24325;SDS011;12448;45.532;5.290;2024-02-15T12:23:12;6.25;;;2.20;;
24325;SDS011;12448;45.532;5.290;2024-02-15T12:25:43;5.72;;;2.25;;
24325;SDS011;12448;45.532;5.290;2024-02-15T12:28:08;3.97;;;1.83;;
24325;SDS011;12448;45.532;5.290;2024-02-15T12:30:34;7.03;;;2.17;;
24325;SDS011;12448;45.532;5.290;2024-02-15T12:33:09;5.38;;;1.80;;
24325;SDS011;12448;45.532;5.290;2024-02-15T12:35:48;4.57;;;1.95;;
24325;SDS011;12448;45.532;5.290;2024-02-15T12:38:17;6.37;;;1.93;;
24325;SDS011;12448;45.532;5.290;2024-02-15T12:40:49;5.05;;;1.92;;
24325;SDS011;12448;45.532;5.290;2024-02-15T12:43:17;5.85;;;2.33;;
24325;SDS011;12448;45.532;5.290;2024-02-15T12:45:43;9.27;;;2.10;;
24325;SDS011;12448;45.532;5.290;2024-02-15T12:48:09;8.15;;;1.80;;
24325;SDS011;12448;45.532;5.290;2024-02-15T12:50:47;8.85;;;2.10;;
24325;SDS011;12448;45.532;5.290;2024-02-15T12:53:18;6.43;;;2.17;;
24325;SDS011;12448;45.532;5.290;2024-02-15T12:55:53;4.30;;;1.95;;
24325;SDS011;12448;45.532;5.290;2024-02-15T12:58:40;6.75;;;2.17;;
24325;SDS011;12448;45.532;5.290;2024-02-15T13:01:08;4.43;;;1.95;;
24325;SDS011;12448;45.532;5.290;2024-02-15T13:03:37;5.85;;;1.80;;
24325;SDS011;12448;45.532;5.290;2024-02-15T13:06:03;7.00;;;2.20;;
24325;SDS011;12448;45.532;5.290;2024-02-15T13:08:29;4.03;;;1.70;;
24325;SDS011;12448;45.532;5.290;2024-02-15T13:10:56;6.50;;;1.80;;
24325;SDS011;12448;45.532;5.290;2024-02-15T13:13:22;5.25;;;2.20;;
24325;SDS011;12448;45.532;5.290;2024-02-15T13:15:48;7.22;;;2.28;;
24325;SDS011;12448;45.532;5.290;2024-02-15T13:18:13;5.75;;;2.08;;
24325;SDS011;12448;45.532;5.290;2024-02-15T13:20:40;5.00;;;1.95;;
24325;SDS011;12448;45.532;5.290;2024-02-15T13:23:06;8.00;;;2.47;;
24325;SDS011;12448;45.532;5.290;2024-02-15T13:25:35;7.82;;;3.25;;
24325;SDS011;12448;45.532;5.290;2024-02-15T13:28:08;9.15;;;2.92;;
24325;SDS011;12448;45.532;5.290;2024-02-15T13:30:35;5.32;;;2.30;;
24325;SDS011;12448;45.532;5.290;2024-02-15T13:33:02;8.02;;;2.40;;
24325;SDS011;12448;45.532;5.290;2024-02-15T13:35:28;10.52;;;2.63;;
24325;SDS011;12448;45.532;5.290;2024-02-15T13:37:56;4.57;;;2.20;;
24325;SDS011;12448;45.532;5.290;2024-02-15T13:40:25;5.72;;;2.40;;
24325;SDS011;12448;45.532;5.290;2024-02-15T13:45:26;8.45;;;2.60;;
24325;SDS011;12448;45.532;5.290;2024-02-15T13:47:55;8.18;;;2.20;;
24325;SDS011;12448;45.532;5.290;2024-02-15T13:50:22;5.57;;;2.10;;
24325;SDS011;12448;45.532;5.290;2024-02-15T13:52:48;6.07;;;2.58;;
24325;SDS011;12448;45.532;5.290;2024-02-15T13:55:18;8.35;;;2.65;;
24325;SDS011;12448;45.532;5.290;2024-02-15T13:57:45;6.80;;;2.05;;
24325;SDS011;12448;45.532;5.290;2024-02-15T14:00:13;11.55;;;2.28;;
24325;SDS011;12448;45.532;5.290;2024-02-15T14:02:49;6.72;;;2.25;;
24325;SDS011;12448;45.532;5.290;2024-02-15T14:05:17;9.43;;;3.42;;
24325;SDS011;12448;45.532;5.290;2024-02-15T14:07:46;7.68;;;3.60;;
24325;SDS011;12448;45.532;5.290;2024-02-15T14:10:21;8.80;;;3.38;;
24325;SDS011;12448;45.532;5.290;2024-02-15T14:12:52;11.20;;;3.90;;
24325;SDS011;12448;45.532;5.290;2024-02-15T14:15:20;7.32;;;3.58;;
24325;SDS011;12448;45.532;5.290;2024-02-15T14:17:46;8.98;;;3.30;;
24325;SDS011;12448;45.532;5.290;2024-02-15T14:20:12;7.40;;;3.05;;
24325;SDS011;12448;45.532;5.290;2024-02-15T14:22:41;9.35;;;3.38;;
24325;SDS011;12448;45.532;5.290;2024-02-15T14:25:13;7.90;;;3.50;;
24325;SDS011;12448;45.532;5.290;2024-02-15T14:27:41;9.02;;;3.25;;
24325;SDS011;12448;45.532;5.290;2024-02-15T14:30:11;11.13;;;2.92;;
24325;SDS011;12448;45.532;5.290;2024-02-15T14:32:56;10.27;;;2.78;;
24325;SDS011;12448;45.532;5.290;2024-02-15T14:35:34;8.02;;;2.67;;
24325;SDS011;12448;45.532;5.290;2024-02-15T14:38:04;6.28;;;2.50;;
24325;SDS011;12448;45.532;5.290;2024-02-15T14:40:33;9.02;;;2.42;;
24325;SDS011;12448;45.532;5.290;2024-02-15T14:42:59;7.50;;;2.20;;
24325;SDS011;12448;45.532;5.290;2024-02-15T14:45:25;8.15;;;2.58;;
24325;SDS011;12448;45.532;5.290;2024-02-15T14:47:54;6.32;;;2.85;;
24325;SDS011;12448;45.532;5.290;2024-02-15T14:50:20;7.85;;;2.67;;
24325;SDS011;12448;45.532;5.290;2024-02-15T14:52:46;4.70;;;2.08;;
24325;SDS011;12448;45.532;5.290;2024-02-15T14:55:13;4.88;;;1.80;;
24325;SDS011;12448;45.532;5.290;2024-02-15T14:57:38;9.52;;;2.63;;
24325;SDS011;12448;45.532;5.290;2024-02-15T15:00:07;4.85;;;2.13;;
24325;SDS011;12448;45.532;5.290;2024-02-15T15:02:37;4.43;;;2.22;;
24325;SDS011;12448;45.532;5.290;2024-02-15T15:05:07;8.93;;;2.20;;
24325;SDS011;12448;45.532;5.290;2024-02-15T15:07:54;7.65;;;2.95;;